createdAt,value
2023-02-05T00:00:17.552Z,56.49
2023-02-05T00:02:44.964Z,56.54
2023-02-05T00:05:13.661Z,56.63
2023-02-05T00:07:41.092Z,56.45
2023-02-05T00:10:08.836Z,56.59
2023-02-05T00:12:36.541Z,56.53
2023-02-05T00:15:04.061Z,56.43
2023-02-05T00:17:31.473Z,56.32
2023-02-05T00:19:58.864Z,56.36
2023-02-05T00:22:27.581Z,56.54
2023-02-05T00:24:54.993Z,56.26
2023-02-05T00:27:22.367Z,56.51
2023-02-05T00:29:49.771Z,56.42
2023-02-05T00:32:17.148Z,56.08
2023-02-05T00:34:44.536Z,56.28
2023-02-05T00:37:12.013Z,56.00
2023-02-05T00:39:40.982Z,55.82
2023-02-05T00:42:08.361Z,55.91
2023-02-05T00:44:35.892Z,55.91
2023-02-05T00:47:03.314Z,55.64
2023-02-05T00:49:30.705Z,55.70
2023-02-05T00:51:58.123Z,55.65
2023-02-05T00:54:25.514Z,55.76
2023-02-05T00:56:54.216Z,55.64
2023-02-05T00:59:22.686Z,55.65
2023-02-05T01:01:51.304Z,55.59
2023-02-05T01:04:18.709Z,55.48
2023-02-05T01:06:46.105Z,55.53
2023-02-05T01:09:13.553Z,55.26
2023-02-05T01:11:41.004Z,55.25
2023-02-05T01:14:09.743Z,55.45
2023-02-05T01:16:37.219Z,55.26
2023-02-05T01:19:04.588Z,55.24
2023-02-05T01:21:32.062Z,55.21
2023-02-05T01:24:01.509Z,55.12
2023-02-05T01:26:28.920Z,55.28
2023-02-05T01:28:56.280Z,55.62
2023-02-05T01:31:25.637Z,54.94
2023-02-05T01:33:53.164Z,54.88
2023-02-05T01:36:20.573Z,54.84
2023-02-05T01:38:48.781Z,54.78
2023-02-05T01:41:16.171Z,54.75
2023-02-05T01:43:43.579Z,54.72
2023-02-05T01:46:25.260Z,54.65
2023-02-05T01:48:55.340Z,54.68
2023-02-05T01:51:22.729Z,54.67
2023-02-05T01:53:50.108Z,54.94
2023-02-05T01:56:18.784Z,54.58
2023-02-05T01:58:47.913Z,54.50
2023-02-05T02:01:15.335Z,54.52
2023-02-05T02:03:44.065Z,54.54
2023-02-05T02:06:11.455Z,54.42
2023-02-05T02:08:38.859Z,54.39
2023-02-05T02:11:06.920Z,54.35
2023-02-05T02:13:35.233Z,54.25
2023-02-05T02:16:03.082Z,54.08
2023-02-05T02:18:30.526Z,54.15
2023-02-05T02:21:45.568Z,54.16
2023-02-05T02:24:34.592Z,54.21
2023-02-05T02:27:10.562Z,54.09
2023-02-05T02:29:40.706Z,54.19
2023-02-05T02:32:10.297Z,54.04
2023-02-05T02:34:38.956Z,53.88
2023-02-05T02:37:07.840Z,53.83
2023-02-05T02:39:38.727Z,53.94
2023-02-05T02:42:08.575Z,53.78
2023-02-05T02:44:40.444Z,53.69
2023-02-05T02:47:10.866Z,53.78
2023-02-05T02:49:39.835Z,53.43
2023-02-05T02:52:08.187Z,53.55
2023-02-05T02:54:35.860Z,53.61
2023-02-05T02:57:03.486Z,53.83
2023-02-05T02:59:31.030Z,53.79
2023-02-05T03:02:01.051Z,53.58
2023-02-05T03:04:29.714Z,53.62
2023-02-05T03:07:06.896Z,53.73
2023-02-05T03:09:36.428Z,53.70
2023-02-05T03:12:04.073Z,53.68
2023-02-05T03:14:31.621Z,53.50
2023-02-05T03:17:00.451Z,53.28
2023-02-05T03:19:27.864Z,53.58
2023-02-05T03:21:56.296Z,53.49
2023-02-05T03:24:23.680Z,53.53
2023-02-05T03:26:51.086Z,53.49
2023-02-05T03:29:22.264Z,53.67
2023-02-05T03:31:52.657Z,53.63
2023-02-05T03:34:29.231Z,53.31
2023-02-05T03:37:01.593Z,53.40
2023-02-05T03:39:33.032Z,53.21
2023-02-05T03:42:07.294Z,53.43
2023-02-05T03:44:52.429Z,53.38
2023-02-05T03:47:22.570Z,53.09
2023-02-05T03:49:52.552Z,53.35
2023-02-05T03:52:21.416Z,53.30
2023-02-05T03:54:51.918Z,53.20
2023-02-05T03:57:21.416Z,53.47
2023-02-05T03:59:48.796Z,53.26
2023-02-05T04:02:16.222Z,53.04
2023-02-05T04:04:43.634Z,53.18
2023-02-05T04:07:12.360Z,53.13
2023-02-05T04:09:39.801Z,53.09
2023-02-05T04:12:07.528Z,53.03
2023-02-05T04:14:34.906Z,53.09
2023-02-05T04:17:03.016Z,53.08
2023-02-05T04:19:30.400Z,53.05
2023-02-05T04:21:57.796Z,52.97
2023-02-05T04:24:26.544Z,52.87
2023-02-05T04:26:53.938Z,53.00
2023-02-05T04:29:21.330Z,52.86
2023-02-05T04:31:48.785Z,52.85
2023-02-05T04:34:16.211Z,52.91
2023-02-05T04:36:44.098Z,52.90
2023-02-05T04:39:11.508Z,52.90
2023-02-05T04:41:40.287Z,52.80
2023-02-05T04:44:07.705Z,52.75
2023-02-05T04:46:35.151Z,52.78
2023-02-05T04:49:02.527Z,52.88
2023-02-05T04:51:29.982Z,52.70
2023-02-05T04:53:57.436Z,52.81
2023-02-05T04:56:24.828Z,52.80
2023-02-05T04:58:53.504Z,52.72
2023-02-05T05:01:22.217Z,52.55
2023-02-05T05:03:49.978Z,52.77
2023-02-05T05:06:17.941Z,52.71
2023-02-05T05:08:45.421Z,52.69
2023-02-05T05:11:13.931Z,52.60
2023-02-05T05:13:41.466Z,52.57
2023-02-05T05:16:10.715Z,52.53
2023-02-05T05:18:38.201Z,52.72
2023-02-05T05:21:06.193Z,52.76
2023-02-05T05:23:33.723Z,52.80
2023-02-05T05:26:03.905Z,52.64
2023-02-05T05:28:33.751Z,52.61
2023-02-05T05:31:01.273Z,52.62
2023-02-05T05:33:30.042Z,52.66
2023-02-05T05:35:57.438Z,52.60
2023-02-05T05:38:24.885Z,52.40
2023-02-05T05:41:10.011Z,52.52
2023-02-05T05:43:49.683Z,52.60
2023-02-05T05:46:21.827Z,52.47
2023-02-05T05:48:51.618Z,52.58
2023-02-05T05:51:19.056Z,52.58
2023-02-05T05:53:46.849Z,52.55
2023-02-05T05:56:14.356Z,52.62
2023-02-05T05:58:41.785Z,52.63
2023-02-05T06:01:09.194Z,52.42
2023-02-05T06:03:36.754Z,52.39
2023-02-05T06:06:06.517Z,52.56
2023-02-05T06:08:33.944Z,52.74
2023-02-05T06:11:01.337Z,52.65
2023-02-05T06:13:28.781Z,52.56
2023-02-05T06:15:56.210Z,52.69
2023-02-05T06:18:24.028Z,52.68
2023-02-05T06:20:51.486Z,52.68
2023-02-05T06:23:20.250Z,52.69
2023-02-05T06:25:47.634Z,52.57
2023-02-05T06:28:15.076Z,52.55
2023-02-05T06:30:42.488Z,52.66
2023-02-05T06:33:11.429Z,52.65
2023-02-05T06:35:38.839Z,52.68
2023-02-05T06:38:06.274Z,52.61
2023-02-05T06:40:35.001Z,52.68
2023-02-05T06:43:02.957Z,52.46
2023-02-05T06:45:30.444Z,52.55
2023-02-05T06:47:58.275Z,52.36
2023-02-05T06:50:25.726Z,52.73
2023-02-05T06:52:53.134Z,52.73
2023-02-05T06:55:20.781Z,52.50
2023-02-05T06:57:49.557Z,52.67
2023-02-05T07:00:17.357Z,52.38
2023-02-05T07:02:44.839Z,52.71
2023-02-05T07:05:12.312Z,52.63
2023-02-05T07:07:39.709Z,52.58
2023-02-05T07:10:07.232Z,52.61
2023-02-05T07:12:34.626Z,52.64
2023-02-05T07:15:03.318Z,52.57
2023-02-05T07:17:30.723Z,52.62
2023-02-05T07:19:58.649Z,52.64
2023-02-05T07:22:26.120Z,52.54
2023-02-05T07:24:53.494Z,52.59
2023-02-05T07:27:20.904Z,52.60
2023-02-05T07:29:48.340Z,52.65
2023-02-05T07:32:17.041Z,52.48
2023-02-05T07:34:44.694Z,52.34
2023-02-05T07:37:12.200Z,52.69
2023-02-05T07:39:39.654Z,52.47
2023-02-05T07:42:07.110Z,52.60
2023-02-05T07:44:34.474Z,52.40
2023-02-05T07:47:01.865Z,52.58
2023-02-05T07:49:30.647Z,52.59
2023-02-05T07:51:58.079Z,52.55
2023-02-05T07:54:25.600Z,52.51
2023-02-05T07:56:53.005Z,52.53
2023-02-05T07:59:20.399Z,52.57
2023-02-05T08:01:47.784Z,52.54
2023-02-05T08:04:15.213Z,52.57
2023-02-05T08:06:43.976Z,52.60
2023-02-05T08:09:11.486Z,52.67
2023-02-05T08:11:38.891Z,52.52
2023-02-05T08:14:06.301Z,52.71
2023-02-05T08:16:33.762Z,52.60
2023-02-05T08:19:01.240Z,52.59
2023-02-05T08:21:28.644Z,52.51
2023-02-05T08:23:58.434Z,52.49
2023-02-05T08:26:25.809Z,52.37
2023-02-05T08:28:53.197Z,52.64
2023-02-05T08:31:20.634Z,52.53
2023-02-05T08:33:50.580Z,52.64
2023-02-05T08:36:17.963Z,52.49
2023-02-05T08:38:45.370Z,52.48
2023-02-05T08:41:14.176Z,52.57
2023-02-05T08:43:42.471Z,52.86
2023-02-05T08:46:09.998Z,52.67
2023-02-05T08:48:37.627Z,52.49
2023-02-05T08:51:05.418Z,52.63
2023-02-05T08:53:32.901Z,52.53
2023-02-05T08:56:01.325Z,52.53
2023-02-05T08:58:30.024Z,52.62
2023-02-05T09:01:01.220Z,52.69
2023-02-05T09:03:28.644Z,52.76
2023-02-05T09:05:56.015Z,52.68
2023-02-05T09:08:23.403Z,52.65
2023-02-05T09:10:50.896Z,52.50
2023-02-05T09:13:18.271Z,52.73
2023-02-05T09:15:48.621Z,52.56
2023-02-05T09:18:16.147Z,52.54
2023-02-05T09:20:44.022Z,52.56
2023-02-05T09:23:11.744Z,52.61
2023-02-05T09:25:39.287Z,52.56
2023-02-05T09:28:08.030Z,52.55
2023-02-05T09:30:36.099Z,52.69
2023-02-05T09:33:04.950Z,52.73
2023-02-05T09:35:32.777Z,52.50
2023-02-05T09:38:02.235Z,52.67
2023-02-05T09:40:31.781Z,52.52
2023-02-05T09:43:02.103Z,52.65
2023-02-05T09:45:38.344Z,52.44
2023-02-05T09:48:15.305Z,52.56
2023-02-05T09:50:42.689Z,52.65
2023-02-05T09:53:12.801Z,52.68
2023-02-05T09:55:40.837Z,52.63
2023-02-05T09:58:09.300Z,52.77
2023-02-05T10:00:40.350Z,52.70
2023-02-05T10:03:11.781Z,52.77
2023-02-05T10:05:41.255Z,52.58
2023-02-05T10:08:11.088Z,52.66
2023-02-05T10:10:40.621Z,52.50
2023-02-05T10:13:27.674Z,52.33
2023-02-05T10:16:30.571Z,52.72
2023-02-05T10:19:09.544Z,52.56
2023-02-05T10:21:46.022Z,52.80
2023-02-05T10:24:21.334Z,52.59
2023-02-05T10:26:50.520Z,52.68
2023-02-05T10:29:25.828Z,52.57
2023-02-05T10:31:59.841Z,52.97
2023-02-05T10:34:41.183Z,52.64
2023-02-05T10:37:13.575Z,52.76
2023-02-05T10:39:40.964Z,52.70
2023-02-05T10:42:18.378Z,52.59
2023-02-05T10:44:46.219Z,52.76
2023-02-05T10:47:14.902Z,52.80
2023-02-05T10:49:46.948Z,52.66
2023-02-05T10:52:14.719Z,52.68
2023-02-05T10:54:42.187Z,52.72
2023-02-05T10:57:13.556Z,52.63
2023-02-05T10:59:47.531Z,52.78
2023-02-05T11:02:14.908Z,52.68
2023-02-05T11:04:45.057Z,52.66
2023-02-05T11:07:12.322Z,52.75
2023-02-05T11:09:39.733Z,52.69
2023-02-05T11:12:15.633Z,52.74
2023-02-05T11:14:45.604Z,52.82
2023-02-05T11:17:21.452Z,52.56
2023-02-05T11:19:56.609Z,52.78
2023-02-05T11:22:28.206Z,52.74
2023-02-05T11:25:05.744Z,52.74
2023-02-05T11:27:33.316Z,52.68
2023-02-05T11:30:28.658Z,52.68
2023-02-05T11:33:25.555Z,52.72
2023-02-05T11:35:55.514Z,53.03
2023-02-05T11:38:29.663Z,52.77
2023-02-05T11:40:57.377Z,52.88
2023-02-05T11:43:28.052Z,52.81
2023-02-05T11:45:56.676Z,52.77
2023-02-05T11:48:29.686Z,52.71
2023-02-05T11:50:58.375Z,52.80
2023-02-05T11:53:25.824Z,52.82
2023-02-05T11:55:54.259Z,52.81
2023-02-05T11:58:34.901Z,52.95
2023-02-05T12:01:04.462Z,52.83
2023-02-05T12:03:32.570Z,52.75
2023-02-05T12:06:05.958Z,52.77
2023-02-05T12:08:37.299Z,52.83
2023-02-05T12:11:15.703Z,53.12
2023-02-05T12:13:49.116Z,52.89
2023-02-05T12:16:19.771Z,53.06
2023-02-05T12:18:51.184Z,52.67
2023-02-05T12:21:24.181Z,52.97
2023-02-05T12:24:07.100Z,53.13
2023-02-05T12:26:35.083Z,52.95
2023-02-05T12:29:15.022Z,52.99
2023-02-05T12:31:50.498Z,52.99
2023-02-05T12:34:24.390Z,52.93
2023-02-05T12:37:17.760Z,52.94
2023-02-05T12:39:46.822Z,52.94
2023-02-05T12:42:24.685Z,52.72
2023-02-05T12:44:59.596Z,52.99
2023-02-05T12:47:42.154Z,53.21
2023-02-05T12:50:17.448Z,53.12
2023-02-05T12:52:54.459Z,52.98
2023-02-05T12:55:28.268Z,52.99
2023-02-05T12:57:58.352Z,53.06
2023-02-05T13:00:27.680Z,53.05
2023-02-05T13:02:58.621Z,53.14
2023-02-05T13:05:27.788Z,53.12
2023-02-05T13:07:58.134Z,53.26
2023-02-05T13:10:28.240Z,53.00
2023-02-05T13:12:55.988Z,53.18
2023-02-05T13:15:24.609Z,53.29
2023-02-05T13:17:56.228Z,53.28
2023-02-05T13:20:45.934Z,53.14
2023-02-05T13:23:32.780Z,53.29
2023-02-05T13:26:17.723Z,53.29
2023-02-05T13:28:45.656Z,53.26
2023-02-05T13:31:22.213Z,53.29
2023-02-05T13:33:49.768Z,53.10
2023-02-05T13:36:28.960Z,53.29
2023-02-05T13:39:03.774Z,53.45
2023-02-05T13:41:42.954Z,53.43
2023-02-05T13:44:32.556Z,53.46
2023-02-05T13:47:19.743Z,53.32
2023-02-05T13:50:05.735Z,53.42
2023-02-05T13:52:54.498Z,53.50
2023-02-05T13:55:49.220Z,53.54
2023-02-05T13:58:20.457Z,53.41
2023-02-05T14:00:53.327Z,53.47
2023-02-05T14:03:26.573Z,53.64
2023-02-05T14:05:53.969Z,53.67
2023-02-05T14:08:22.851Z,53.88
2023-02-05T14:10:58.845Z,53.61
2023-02-05T14:13:28.435Z,53.80
2023-02-05T14:15:57.266Z,53.73
2023-02-05T14:18:46.927Z,53.76
2023-02-05T14:21:47.631Z,53.68
2023-02-05T14:24:41.340Z,53.69
2023-02-05T14:27:46.754Z,53.86
2023-02-05T14:30:37.395Z,53.84
2023-02-05T14:33:05.309Z,54.02
2023-02-05T14:35:33.783Z,53.75
2023-02-05T14:38:02.387Z,53.94
2023-02-05T14:40:31.618Z,53.99
2023-02-05T14:43:09.898Z,53.96
2023-02-05T14:45:43.429Z,54.02
2023-02-05T14:48:18.998Z,54.04
2023-02-05T14:50:46.390Z,53.68
2023-02-05T14:53:22.947Z,53.89
2023-02-05T14:55:55.439Z,53.85
2023-02-05T14:58:25.120Z,53.85
2023-02-05T15:00:53.032Z,54.08
2023-02-05T15:03:28.993Z,53.95
2023-02-05T15:05:59.363Z,54.06
2023-02-05T15:08:40.139Z,53.95
2023-02-05T15:13:30.385Z,54.10
2023-02-05T15:16:19.602Z,53.95
2023-02-05T15:18:47.939Z,53.92
2023-02-05T15:21:17.555Z,53.96
2023-02-05T15:23:46.164Z,54.04
2023-02-05T15:26:20.806Z,54.12
2023-02-05T15:28:53.483Z,54.06
2023-02-05T15:31:26.969Z,54.02
2023-02-05T15:33:58.818Z,54.22
2023-02-05T15:36:31.147Z,54.38
2023-02-05T15:39:06.675Z,54.06
2023-02-05T15:41:35.915Z,54.07
2023-02-05T15:44:04.716Z,54.16
2023-02-05T15:46:32.617Z,54.13
2023-02-05T15:49:00.215Z,54.22
2023-02-05T15:51:29.750Z,54.25
2023-02-05T15:53:57.620Z,54.44
2023-02-05T15:56:26.268Z,54.17
2023-02-05T15:58:55.320Z,54.55
2023-02-05T16:01:25.291Z,54.31
2023-02-05T16:03:52.677Z,54.20
2023-02-05T16:06:20.533Z,54.23
2023-02-05T16:08:48.075Z,54.26
2023-02-05T16:11:27.085Z,54.34
2023-02-05T16:14:13.472Z,54.33
2023-02-05T16:16:43.310Z,54.25
2023-02-05T16:19:15.159Z,54.37
2023-02-05T16:21:43.963Z,54.32
2023-02-05T16:24:17.658Z,54.29
2023-02-05T16:26:46.774Z,54.30
2023-02-05T16:29:25.028Z,54.30
2023-02-05T16:32:02.412Z,54.46
2023-02-05T16:34:29.772Z,54.26
2023-02-05T16:37:02.728Z,54.41
2023-02-05T16:39:32.074Z,54.33
2023-02-05T16:42:04.029Z,54.49
2023-02-05T16:44:32.603Z,54.47
2023-02-05T16:47:12.952Z,54.54
2023-02-05T16:49:40.438Z,54.47
2023-02-05T16:52:26.292Z,54.24
2023-02-05T16:54:53.670Z,54.43
2023-02-05T16:57:25.684Z,54.57
2023-02-05T16:59:54.214Z,54.44
2023-02-05T17:02:29.228Z,54.43
2023-02-05T17:04:57.627Z,54.61
2023-02-05T17:07:25.244Z,54.44
2023-02-05T17:09:52.620Z,54.47
2023-02-05T17:12:41.830Z,54.51
2023-02-05T17:15:32.988Z,54.58
2023-02-05T17:18:06.172Z,54.61
2023-02-05T17:20:34.188Z,54.55
2023-02-05T17:23:12.596Z,54.52
2023-02-05T17:25:41.120Z,54.55
2023-02-05T17:28:10.978Z,54.63
2023-02-05T17:30:38.501Z,54.64
2023-02-05T17:33:08.129Z,54.47
2023-02-05T17:35:35.768Z,54.77
2023-02-05T17:38:03.161Z,54.69
2023-02-05T17:40:30.620Z,54.84
2023-02-05T17:42:58.034Z,54.75
2023-02-05T17:45:26.413Z,54.55
2023-02-05T17:47:53.830Z,54.66
2023-02-05T17:50:22.565Z,54.68
2023-02-05T17:52:49.938Z,54.60
2023-02-05T17:55:18.301Z,54.68
2023-02-05T17:57:45.970Z,54.72
2023-02-05T18:00:14.442Z,54.75
2023-02-05T18:02:41.836Z,54.66
2023-02-05T18:05:11.700Z,54.47
2023-02-05T18:07:41.097Z,54.63
2023-02-05T18:10:08.816Z,54.57
2023-02-05T18:12:36.194Z,54.71
2023-02-05T18:15:03.923Z,54.66
2023-02-05T18:17:31.324Z,54.82
2023-02-05T18:19:58.689Z,54.63
2023-02-05T18:22:26.108Z,54.67
2023-02-05T18:24:54.801Z,54.94
2023-02-05T18:27:22.219Z,54.76
2023-02-05T18:29:49.596Z,54.78
2023-02-05T18:32:16.984Z,54.69
2023-02-05T18:34:44.385Z,54.88
2023-02-05T18:37:13.991Z,54.86
2023-02-05T18:39:41.467Z,54.91
2023-02-05T18:42:11.392Z,54.70
2023-02-05T18:44:38.768Z,54.85
2023-02-05T18:47:07.101Z,54.80
2023-02-05T18:49:34.576Z,54.74
2023-02-05T18:52:02.263Z,54.76
2023-02-05T18:54:29.902Z,54.75
2023-02-05T18:56:57.293Z,54.75
2023-02-05T18:59:25.997Z,54.82
2023-02-05T19:01:53.664Z,54.85
2023-02-05T19:04:21.277Z,54.88
2023-02-05T19:06:52.015Z,54.57
2023-02-05T19:09:19.995Z,54.88
2023-02-05T19:11:47.380Z,54.94
2023-02-05T19:14:15.230Z,54.94
2023-02-05T19:16:44.279Z,54.95
2023-02-05T19:19:11.942Z,54.92
2023-02-05T19:21:39.360Z,54.81
2023-02-05T19:24:09.263Z,54.83
2023-02-05T19:26:37.685Z,54.94
2023-02-05T19:29:06.101Z,54.96
2023-02-05T19:31:34.343Z,55.02
2023-02-05T19:34:03.066Z,54.76
2023-02-05T19:36:30.610Z,54.95
2023-02-05T19:38:58.045Z,54.78
2023-02-05T19:41:26.194Z,54.95
2023-02-05T19:43:54.932Z,54.70
2023-02-05T19:46:24.843Z,54.92
2023-02-05T19:48:52.315Z,54.92
2023-02-05T19:51:21.652Z,54.91
2023-02-05T19:53:49.048Z,55.04
2023-02-05T19:56:17.238Z,54.87
2023-02-05T19:58:46.397Z,54.87
2023-02-05T20:01:14.287Z,55.13
2023-02-05T20:03:41.894Z,55.05
2023-02-05T20:06:09.542Z,54.92
2023-02-05T20:08:38.221Z,55.08
2023-02-05T20:11:05.966Z,54.92
2023-02-05T20:13:34.043Z,54.96
2023-02-05T20:16:02.316Z,54.99
2023-02-05T20:18:29.758Z,55.03
2023-02-05T20:20:57.158Z,55.10
2023-02-05T20:23:25.378Z,54.84
2023-02-05T20:25:57.390Z,54.88
2023-02-05T20:28:26.097Z,54.93
2023-02-05T20:31:10.886Z,54.85
2023-02-05T20:33:38.368Z,54.91
2023-02-05T20:36:06.750Z,54.88
2023-02-05T20:38:34.138Z,54.91
2023-02-05T20:41:10.931Z,54.90
2023-02-05T20:43:38.315Z,54.91
2023-02-05T20:46:06.027Z,54.92
2023-02-05T20:48:33.406Z,54.91
2023-02-05T20:51:05.414Z,54.91
2023-02-05T20:53:32.824Z,54.96
2023-02-05T20:56:04.703Z,54.87
2023-02-05T20:58:32.320Z,55.13
2023-02-05T21:01:06.018Z,55.04
2023-02-05T21:03:33.432Z,54.90
2023-02-05T21:06:00.808Z,54.95
2023-02-05T21:08:28.208Z,54.92
2023-02-05T21:10:55.575Z,55.06
2023-02-05T21:13:24.250Z,54.85
2023-02-05T21:15:54.777Z,55.06
2023-02-05T21:18:22.409Z,55.01
2023-02-05T21:20:49.797Z,54.96
2023-02-05T21:23:17.236Z,55.02
2023-02-05T21:25:44.639Z,54.92
2023-02-05T21:28:12.318Z,54.91
2023-02-05T21:30:42.818Z,55.11
2023-02-05T21:33:10.265Z,55.04
2023-02-05T21:35:38.835Z,55.00
2023-02-05T21:38:06.264Z,55.05
2023-02-05T21:40:34.058Z,54.88
2023-02-05T21:43:01.628Z,55.06
2023-02-05T21:45:29.033Z,55.09
2023-02-05T21:47:57.756Z,54.92
2023-02-05T21:50:25.139Z,55.04
2023-02-05T21:52:54.853Z,54.91
2023-02-05T21:55:23.969Z,54.99
2023-02-05T21:57:51.354Z,55.12
2023-02-05T22:00:18.939Z,54.92
2023-02-05T22:02:46.316Z,54.85
2023-02-05T22:05:15.007Z,55.06
2023-02-05T22:07:42.389Z,55.04
2023-02-05T22:10:10.101Z,54.94
2023-02-05T22:12:37.487Z,55.14
2023-02-05T22:15:05.432Z,54.95
2023-02-05T22:17:33.166Z,55.06
2023-02-05T22:20:00.556Z,54.93
2023-02-05T22:22:29.488Z,54.93
2023-02-05T22:24:56.860Z,55.03
2023-02-05T22:27:24.427Z,54.90
2023-02-05T22:29:51.811Z,55.23
2023-02-05T22:32:19.185Z,54.95
2023-02-05T22:34:46.548Z,54.84
2023-02-05T22:37:13.983Z,55.03
2023-02-05T22:39:43.393Z,54.98
2023-02-05T22:42:10.779Z,54.93
2023-02-05T22:44:38.514Z,54.81
2023-02-05T22:47:05.929Z,55.00
2023-02-05T22:49:33.333Z,54.83
2023-02-05T22:52:00.719Z,54.94
2023-02-05T22:54:28.136Z,54.94
2023-02-05T22:56:56.827Z,54.97
2023-02-05T22:59:24.206Z,54.99
2023-02-05T23:01:51.581Z,54.99
2023-02-05T23:04:18.964Z,54.98
2023-02-05T23:06:46.355Z,54.85
2023-02-05T23:09:15.209Z,54.79
2023-02-05T23:11:42.747Z,54.91
2023-02-05T23:14:11.733Z,54.90
2023-02-05T23:16:40.084Z,54.90
2023-02-05T23:19:08.465Z,54.90
2023-02-05T23:21:36.335Z,54.71
2023-02-05T23:24:03.824Z,54.78
2023-02-05T23:26:32.122Z,54.81
2023-02-05T23:28:59.593Z,54.95
2023-02-05T23:31:28.378Z,54.79
2023-02-05T23:33:55.889Z,54.84
2023-02-05T23:36:23.293Z,54.89
2023-02-05T23:38:50.771Z,54.71
2023-02-05T23:41:35.087Z,54.92
2023-02-05T23:44:04.122Z,54.97
2023-02-05T23:46:32.866Z,54.77
2023-02-05T23:49:00.296Z,54.78
2023-02-05T23:51:27.735Z,54.47
2023-02-05T23:53:55.104Z,54.86
2023-02-05T23:56:22.509Z,54.87
2023-02-05T23:58:49.908Z,54.76
